Time;durP1;ratioP1;P1;durP2;ratioP2;P2;SDS_P1;SDS_P2;PMS_P1;PMS_P2;Temp;Humidity;BMP_temperature;BMP_pressure;BME280_temperature;BME280_humidity;BME280_pressure;Samples;Min_cycle;Max_cycle;Signal;HPM_P1;HPM_P2
2021/06/18 00:01:24;;;;;;;12.30;5.57;;;22.90;77.60;;;;;;5158865;27;20063;-79
2021/06/18 00:03:51;;;;;;;15.90;4.78;;;22.90;77.20;;;;;;5159144;27;20050;-79
2021/06/18 00:06:18;;;;;;;7.03;4.12;;;22.90;77.10;;;;;;5175805;27;20043;-80
2021/06/18 00:08:45;;;;;;;8.00;3.78;;;22.80;77.10;;;;;;5175827;27;20027;-79
2021/06/18 00:11:12;;;;;;;7.45;3.30;;;22.70;77.00;;;;;;5176018;27;20074;-78
2021/06/18 00:13:39;;;;;;;9.10;4.12;;;22.70;76.90;;;;;;5175614;27;20351;-79
2021/06/18 00:16:06;;;;;;;7.65;3.72;;;22.60;76.80;;;;;;5157465;27;20062;-78
2021/06/18 00:18:34;;;;;;;7.68;2.90;;;22.50;76.80;;;;;;5157626;27;20043;-78
2021/06/18 00:21:02;;;;;;;10.68;3.25;;;22.50;76.80;;;;;;5157407;27;20027;-79
2021/06/18 00:23:29;;;;;;;11.02;3.42;;;22.40;76.60;;;;;;5157901;27;20037;-79
2021/06/18 00:25:56;;;;;;;18.37;2.80;;;22.40;76.50;;;;;;5175875;27;20019;-80
2021/06/18 00:28:23;;;;;;;10.07;2.58;;;22.40;76.40;;;;;;5175847;27;20396;-79
2021/06/18 00:30:50;;;;;;;7.93;2.83;;;22.40;76.30;;;;;;5157377;27;20018;-79
2021/06/18 00:33:17;;;;;;;7.78;2.53;;;22.30;76.30;;;;;;5157283;27;20371;-79
2021/06/18 00:35:44;;;;;;;6.10;2.30;;;22.20;76.40;;;;;;5177888;27;20087;-79
2021/06/18 00:38:11;;;;;;;8.38;2.53;;;22.20;76.50;;;;;;5178224;27;20019;-79
2021/06/18 00:40:38;;;;;;;6.30;2.47;;;22.10;76.50;;;;;;5176553;27;20356;-79
2021/06/18 00:43:05;;;;;;;6.75;2.50;;;22.00;76.50;;;;;;5159627;27;20012;-79
2021/06/18 00:45:32;;;;;;;6.70;3.12;;;22.00;76.50;;;;;;5175854;27;20039;-79
2021/06/18 00:48:00;;;;;;;8.20;3.50;;;22.00;76.50;;;;;;5159998;27;20095;-79
2021/06/18 00:50:28;;;;;;;6.82;3.90;;;21.90;76.60;;;;;;5157654;27;20027;-79
2021/06/18 00:52:56;;;;;;;6.32;3.90;;;21.90;76.80;;;;;;5158209;27;20022;-79
2021/06/18 00:55:23;;;;;;;11.45;6.28;;;21.80;76.90;;;;;;5159396;27;20066;-81
2021/06/18 00:57:51;;;;;;;14.73;8.95;;;21.80;77.10;;;;;;5157314;27;20019;-79
2021/06/18 01:00:20;;;;;;;11.50;8.88;;;21.80;77.40;;;;;;5159127;27;20030;-79
2021/06/18 01:02:47;;;;;;;15.60;11.18;;;21.80;77.60;;;;;;5176007;27;20062;-79
2021/06/18 01:05:16;;;;;;;17.12;12.45;;;21.70;77.80;;;;;;5175720;27;20023;-79
2021/06/18 01:07:58;;;;;;;23.35;17.35;;;21.70;78.00;;;;;;5157126;27;20031;-80
2021/06/18 01:10:39;;;;;;;28.70;18.92;;;21.70;78.30;;;;;;5175413;27;20387;-80
2021/06/18 01:13:25;;;;;;;28.50;21.60;;;21.70;78.60;;;;;;5176825;27;20081;-81
2021/06/18 01:15:58;;;;;;;29.35;22.92;;;21.60;78.90;;;;;;5157465;27;20443;-80
2021/06/18 01:18:46;;;;;;;33.33;29.12;;;21.60;79.40;;;;;;5176715;27;20023;-80
2021/06/18 01:21:35;;;;;;;40.58;33.03;;;21.60;79.80;;;;;;5158112;27;20008;-81
2021/06/18 01:24:24;;;;;;;43.15;36.78;;;21.60;80.10;;;;;;5157249;27;20022;-80
2021/06/18 01:27:19;;;;;;;44.38;36.83;;;21.60;80.60;;;;;;5157045;27;20007;-81
2021/06/18 01:29:49;;;;;;;44.42;37.67;;;21.50;81.00;;;;;;5157120;27;20022;-81
2021/06/18 01:32:25;;;;;;;44.85;37.08;;;21.50;81.20;;;;;;5157247;27;20043;-83
2021/06/18 01:34:54;;;;;;;49.15;39.05;;;21.50;81.30;;;;;;5157342;27;20394;-80
2021/06/18 01:37:26;;;;;;;55.33;39.85;;;21.50;81.30;;;;;;5157104;27;20388;-80
2021/06/18 01:39:57;;;;;;;51.45;41.60;;;21.50;81.40;;;;;;5177516;27;20061;-79
2021/06/18 01:42:26;;;;;;;50.90;39.78;;;21.50;81.40;;;;;;5156958;27;20027;-82
2021/06/18 01:44:55;;;;;;;55.97;42.17;;;21.50;81.40;;;;;;5175672;27;20042;-79
2021/06/18 01:47:24;;;;;;;55.53;40.95;;;21.60;81.40;;;;;;5157278;27;20415;-81
2021/06/18 01:49:53;;;;;;;53.03;41.03;;;21.60;81.40;;;;;;5156997;27;20011;-79
2021/06/18 01:52:22;;;;;;;51.88;37.35;;;21.50;81.40;;;;;;5157172;27;20384;-82
2021/06/18 01:54:50;;;;;;;44.72;37.88;;;21.50;81.30;;;;;;5175327;27;20050;-80
2021/06/18 01:57:20;;;;;;;48.38;37.88;;;21.50;81.30;;;;;;5157024;27;20077;-82
2021/06/18 01:59:49;;;;;;;42.83;35.40;;;21.60;81.30;;;;;;5158819;27;20423;-79
2021/06/18 02:02:17;;;;;;;45.47;36.10;;;21.60;81.30;;;;;;5158397;27;20099;-81
2021/06/18 02:04:46;;;;;;;44.95;35.45;;;21.50;81.20;;;;;;5158591;27;20050;-80
2021/06/18 02:07:14;;;;;;;44.00;36.08;;;21.50;81.10;;;;;;5156532;27;20054;-79
2021/06/18 02:09:45;;;;;;;44.55;36.38;;;21.50;81.00;;;;;;5157634;27;20023;-81
2021/06/18 02:12:15;;;;;;;46.85;35.03;;;21.50;80.90;;;;;;5175655;27;20012;-79
2021/06/18 02:14:44;;;;;;;47.80;35.53;;;21.50;80.90;;;;;;5175621;27;20011;-80
2021/06/18 02:17:12;;;;;;;46.45;35.83;;;21.40;80.90;;;;;;5156892;27;20038;-83
2021/06/18 02:19:42;;;;;;;45.47;34.47;;;21.40;80.90;;;;;;5156837;27;20027;-81
2021/06/18 02:22:11;;;;;;;43.42;35.30;;;21.40;80.90;;;;;;5156697;27;20035;-80
2021/06/18 02:24:42;;;;;;;48.13;36.47;;;21.40;80.90;;;;;;5175359;27;20459;-82
2021/06/18 02:27:14;;;;;;;42.40;36.20;;;21.40;80.90;;;;;;5156729;27;20018;-79
2021/06/18 02:29:44;;;;;;;45.92;36.17;;;21.40;80.90;;;;;;5157007;27;20067;-82
2021/06/18 02:32:13;;;;;;;44.50;35.72;;;21.40;81.00;;;;;;5157049;27;20121;-84
2021/06/18 02:34:41;;;;;;;43.85;35.45;;;21.30;81.00;;;;;;5158282;27;20045;-80
2021/06/18 02:37:10;;;;;;;48.75;34.88;;;21.30;81.00;;;;;;5156542;27;20058;-82
2021/06/18 02:39:39;;;;;;;45.05;35.08;;;21.30;81.00;;;;;;5156722;27;20124;-80
2021/06/18 02:42:06;;;;;;;38.67;31.67;;;21.30;81.00;;;;;;5174984;27;20054;-82
2021/06/18 02:44:33;;;;;;;36.25;30.65;;;21.30;81.00;;;;;;5176797;27;20019;-81
2021/06/18 02:47:31;;;;;;;45.42;35.55;;;21.30;81.00;;;;;;5177450;27;20011;-79
2021/06/18 02:50:36;;;;;;;41.35;35.30;;;21.30;81.00;;;;;;5175407;27;20071;-80
2021/06/18 02:53:15;;;;;;;44.83;35.65;;;21.30;80.90;;;;;;5157496;27;20019;-82
2021/06/18 02:55:57;;;;;;;42.75;35.03;;;21.30;80.90;;;;;;5175729;27;20033;-80
2021/06/18 02:58:29;;;;;;;44.88;34.63;;;21.30;80.90;;;;;;5158188;27;20063;-79
2021/06/18 03:00:57;;;;;;;45.72;35.80;;;21.30;80.90;;;;;;5157778;27;20023;-80
2021/06/18 03:03:40;;;;;;;44.33;34.35;;;21.30;80.90;;;;;;5158185;27;20027;-81
2021/06/18 03:06:08;;;;;;;42.35;34.67;;;21.20;80.90;;;;;;5177097;27;20466;-83
2021/06/18 03:08:41;;;;;;;39.03;30.12;;;21.30;80.90;;;;;;5176588;27;20026;-80
2021/06/18 03:11:10;;;;;;;35.60;29.63;;;21.30;80.90;;;;;;5176396;27;20023;-82
2021/06/18 03:13:46;;;;;;;36.05;26.70;;;21.30;80.90;;;;;;5158078;27;20086;-81
2021/06/18 03:16:14;;;;;;;35.35;29.52;;;21.20;80.90;;;;;;5158067;27;20070;-81
2021/06/18 03:18:45;;;;;;;34.58;25.88;;;21.30;80.80;;;;;;5176501;27;20019;-79
2021/06/18 03:21:13;;;;;;;36.70;28.67;;;21.30;80.70;;;;;;5157634;27;20034;-83
2021/06/18 03:23:42;;;;;;;33.00;27.30;;;21.30;80.70;;;;;;5157727;27;20064;-79
2021/06/18 03:26:10;;;;;;;36.63;29.17;;;21.30;80.70;;;;;;5178852;27;20038;-81
2021/06/18 03:28:38;;;;;;;35.63;29.33;;;21.30;80.60;;;;;;5158024;27;20027;-81
2021/06/18 03:31:09;;;;;;;30.30;23.90;;;21.30;80.50;;;;;;5176169;27;20063;-80
2021/06/18 03:33:37;;;;;;;29.70;22.08;;;21.30;80.40;;;;;;5176003;27;20016;-80
2021/06/18 03:36:05;;;;;;;28.65;22.23;;;21.30;80.30;;;;;;5157815;27;20015;-79
2021/06/18 03:38:32;;;;;;;26.67;22.02;;;21.30;80.30;;;;;;5157963;27;20070;-79
2021/06/18 03:41:00;;;;;;;22.83;19.90;;;21.20;80.30;;;;;;5158118;27;20022;-81
2021/06/18 03:43:28;;;;;;;26.35;20.30;;;21.30;80.30;;;;;;5159314;27;20007;-79
2021/06/18 03:46:01;;;;;;;24.25;20.20;;;21.20;80.30;;;;;;5157727;27;20027;-82
2021/06/18 03:48:29;;;;;;;27.37;22.10;;;21.20;80.30;;;;;;5160035;27;20007;-81
2021/06/18 03:50:56;;;;;;;21.67;18.05;;;21.20;80.30;;;;;;5157502;27;20443;-82
2021/06/18 03:53:24;;;;;;;29.08;20.88;;;21.20;80.20;;;;;;5160231;27;20355;-79
2021/06/18 03:55:51;;;;;;;26.65;20.48;;;21.20;80.20;;;;;;5158046;27;20027;-79
2021/06/18 03:58:21;;;;;;;23.35;19.10;;;21.20;80.20;;;;;;5177596;27;20062;-79
2021/06/18 04:00:51;;;;;;;26.27;22.10;;;21.20;80.20;;;;;;5157801;27;20082;-80
2021/06/18 04:03:20;;;;;;;27.35;20.62;;;21.20;80.20;;;;;;5158638;27;20042;-82
2021/06/18 04:05:51;;;;;;;28.60;21.83;;;21.20;80.20;;;;;;5175529;27;20039;-81
2021/06/18 04:08:23;;;;;;;34.95;23.30;;;21.20;80.10;;;;;;5157733;27;20095;-80
2021/06/18 04:10:50;;;;;;;31.40;24.08;;;21.10;80.10;;;;;;5176146;27;20382;-82
2021/06/18 04:13:17;;;;;;;27.87;22.65;;;21.10;80.20;;;;;;5157422;27;20035;-79
2021/06/18 04:15:47;;;;;;;28.27;23.75;;;21.10;80.20;;;;;;5157844;27;20398;-82
2021/06/18 04:18:23;;;;;;;31.77;24.05;;;21.10;80.20;;;;;;5178293;27;20015;-82
2021/06/18 04:20:52;;;;;;;33.13;25.05;;;21.10;80.30;;;;;;5175697;27;20007;-80
2021/06/18 04:23:28;;;;;;;29.35;24.08;;;21.00;80.30;;;;;;5157697;27;20391;-80
2021/06/18 04:25:57;;;;;;;32.70;26.27;;;21.00;80.50;;;;;;5175829;27;20023;-83
2021/06/18 04:28:24;;;;;;;29.83;23.60;;;21.00;80.50;;;;;;5159517;27;20038;-87
2021/06/18 04:30:53;;;;;;;36.90;26.60;;;21.00;80.70;;;;;;5157667;27;20063;-81
2021/06/18 04:33:20;;;;;;;27.35;21.70;;;21.00;80.70;;;;;;5157572;27;20038;-77
2021/06/18 04:35:47;;;;;;;33.50;27.30;;;20.90;80.80;;;;;;5157328;27;20379;-83
2021/06/18 04:38:14;;;;;;;34.78;28.50;;;20.90;80.90;;;;;;5158048;27;20023;-81
2021/06/18 04:40:41;;;;;;;35.45;30.02;;;20.90;80.90;;;;;;5159784;27;20046;-82
2021/06/18 04:43:09;;;;;;;34.67;28.52;;;20.90;81.00;;;;;;5159655;27;20031;-82
2021/06/18 04:45:36;;;;;;;37.83;28.17;;;20.90;81.00;;;;;;5159333;27;20038;-80
2021/06/18 04:48:03;;;;;;;33.25;26.75;;;20.90;81.10;;;;;;5157187;27;20018;-83
2021/06/18 04:50:31;;;;;;;35.47;29.80;;;20.90;81.10;;;;;;5157362;27;20027;-81
2021/06/18 04:53:00;;;;;;;35.55;28.75;;;20.90;81.20;;;;;;5157388;27;20360;-83
2021/06/18 04:55:27;;;;;;;39.83;30.85;;;20.90;81.20;;;;;;5159220;27;20012;-79
2021/06/18 04:57:54;;;;;;;38.78;32.13;;;20.90;81.30;;;;;;5176112;27;20027;-80
2021/06/18 05:00:24;;;;;;;37.33;30.27;;;20.90;81.40;;;;;;5157592;27;20022;-82
2021/06/18 05:02:52;;;;;;;39.40;29.30;;;20.90;81.40;;;;;;5175596;27;20049;-82
2021/06/18 05:05:20;;;;;;;37.33;29.77;;;20.90;81.50;;;;;;5157331;27;20055;-81
2021/06/18 05:07:55;;;;;;;37.05;29.73;;;20.90;81.60;;;;;;5157186;27;20034;-83
2021/06/18 05:10:24;;;;;;;38.30;30.58;;;20.90;81.60;;;;;;5158770;27;20359;-82
2021/06/18 05:12:51;;;;;;;41.45;35.40;;;20.90;81.70;;;;;;5157109;27;20007;-82
2021/06/18 05:15:19;;;;;;;44.13;33.92;;;20.90;81.80;;;;;;5175601;27;20011;-81
2021/06/18 05:17:46;;;;;;;41.80;34.92;;;20.90;81.90;;;;;;5177726;27;20395;-81
2021/06/18 05:20:14;;;;;;;47.88;36.90;;;20.90;81.90;;;;;;5175368;27;20004;-79
2021/06/18 05:22:41;;;;;;;44.42;37.13;;;20.90;82.10;;;;;;5157135;27;20333;-81
2021/06/18 05:25:10;;;;;;;43.47;35.50;;;20.90;82.20;;;;;;5157167;27;20095;-83
2021/06/18 05:27:38;;;;;;;45.05;36.42;;;20.80;82.40;;;;;;5157236;27;20031;-81
2021/06/18 05:30:07;;;;;;;51.58;39.65;;;20.80;82.50;;;;;;5177102;27;20074;-85
2021/06/18 05:32:50;;;;;;;50.72;40.67;;;20.80;82.60;;;;;;5159531;27;20003;-81
2021/06/18 05:35:18;;;;;;;50.22;40.28;;;20.80;82.70;;;;;;5157042;27;20373;-80
2021/06/18 05:37:46;;;;;;;51.67;40.78;;;20.80;82.80;;;;;;5159524;27;20007;-81
2021/06/18 05:40:13;;;;;;;52.45;42.55;;;20.80;82.90;;;;;;5157351;27;20018;-82
2021/06/18 05:42:41;;;;;;;60.10;44.65;;;20.80;83.00;;;;;;5159721;27;20026;-81
2021/06/18 05:45:09;;;;;;;61.42;45.53;;;20.80;83.10;;;;;;5157247;27;20356;-82
2021/06/18 05:47:36;;;;;;;57.70;45.67;;;20.80;83.20;;;;;;5139942;27;20035;-80
2021/06/18 05:50:05;;;;;;;63.50;48.33;;;20.90;83.20;;;;;;5175276;27;20034;-81
2021/06/18 05:52:33;;;;;;;65.03;46.75;;;20.90;83.30;;;;;;5157065;27;20031;-82
2021/06/18 05:55:00;;;;;;;58.90;46.30;;;20.90;83.40;;;;;;5156667;27;20061;-83
2021/06/18 05:57:27;;;;;;;69.22;49.63;;;20.90;83.40;;;;;;5159192;27;20035;-84
2021/06/18 05:59:54;;;;;;;62.50;48.08;;;20.90;83.50;;;;;;5176876;27;20027;-86
2021/06/18 06:02:23;;;;;;;65.05;51.75;;;20.90;83.50;;;;;;5157182;27;20030;-83
2021/06/18 06:04:51;;;;;;;72.45;51.92;;;20.90;83.50;;;;;;5156809;27;20513;-82
2021/06/18 06:07:18;;;;;;;64.37;50.33;;;20.90;83.70;;;;;;5157185;27;20022;-82
2021/06/18 06:09:45;;;;;;;62.90;48.33;;;20.90;83.70;;;;;;5156941;27;20058;-83
2021/06/18 06:12:12;;;;;;;65.05;50.00;;;20.90;83.70;;;;;;5156741;27;20022;-83
2021/06/18 06:14:40;;;;;;;67.90;51.58;;;20.90;83.70;;;;;;5158917;27;20051;-81
2021/06/18 06:17:07;;;;;;;66.22;49.88;;;21.00;83.70;;;;;;5157816;27;20083;-82
2021/06/18 06:19:34;;;;;;;63.45;51.30;;;21.00;83.80;;;;;;5177484;27;20007;-81
2021/06/18 06:22:02;;;;;;;69.62;52.62;;;21.00;83.80;;;;;;5175579;27;20007;-81
2021/06/18 06:24:28;;;;;;;70.03;52.10;;;21.10;83.80;;;;;;5175481;27;20038;-82
2021/06/18 06:26:56;;;;;;;74.32;52.17;;;21.10;83.80;;;;;;5175447;27;20019;-80
2021/06/18 06:29:23;;;;;;;71.12;52.55;;;21.10;83.80;;;;;;5156789;27;20026;-82
2021/06/18 06:31:50;;;;;;;70.40;52.58;;;21.10;83.80;;;;;;5176728;27;20026;-81
2021/06/18 06:34:17;;;;;;;66.15;50.33;;;21.10;83.80;;;;;;5160208;27;20068;-86
2021/06/18 06:36:44;;;;;;;70.22;53.38;;;21.20;83.80;;;;;;5158544;27;20066;-79
2021/06/18 06:39:11;;;;;;;66.90;52.58;;;21.20;83.80;;;;;;5158359;27;20418;-81
2021/06/18 06:41:38;;;;;;;78.28;52.08;;;21.30;83.90;;;;;;5158160;27;20019;-86
2021/06/18 06:44:06;;;;;;;66.82;51.20;;;21.30;83.90;;;;;;5158075;27;20066;-84
2021/06/18 06:46:33;;;;;;;73.75;55.17;;;21.30;83.90;;;;;;5157741;27;20407;-82
2021/06/18 06:49:01;;;;;;;72.87;54.17;;;21.30;83.90;;;;;;5154489;27;20003;-83
2021/06/18 06:51:29;;;;;;;65.45;53.53;;;21.40;83.90;;;;;;5155142;27;20030;-81
2021/06/18 06:53:57;;;;;;;67.87;51.42;;;21.40;83.90;;;;;;5157030;27;20020;-82
2021/06/18 06:56:24;;;;;;;68.40;53.47;;;21.50;83.80;;;;;;5159100;27;20034;-82
2021/06/18 06:58:54;;;;;;;65.05;48.03;;;21.50;83.70;;;;;;5156856;27;20062;-82
2021/06/18 07:01:21;;;;;;;56.37;47.53;;;21.50;83.70;;;;;;5156485;27;20435;-80
2021/06/18 07:03:49;;;;;;;73.37;55.25;;;21.60;83.70;;;;;;5158303;27;20387;-80
2021/06/18 07:06:16;;;;;;;71.97;52.92;;;21.60;83.70;;;;;;5156185;27;20032;-83
2021/06/18 07:08:43;;;;;;;65.72;49.55;;;21.70;83.70;;;;;;5175393;27;20011;-81
2021/06/18 07:11:10;;;;;;;60.85;50.38;;;21.80;83.80;;;;;;5152632;27;20058;-81
2021/06/18 07:13:37;;;;;;;66.78;51.60;;;21.90;83.70;;;;;;5087021;27;137439;-84
2021/06/18 07:16:05;;;;;;;60.00;49.30;;;21.90;83.60;;;;;;5171845;27;20072;-82
2021/06/18 07:18:35;;;;;;;58.75;48.28;;;22.00;83.60;;;;;;5174050;27;20019;-83
2021/06/18 07:21:03;;;;;;;60.22;47.25;;;22.10;83.60;;;;;;5156593;27;20026;-83
2021/06/18 07:23:30;;;;;;;59.08;47.20;;;22.20;83.60;;;;;;5156554;27;20087;-83
2021/06/18 07:25:58;;;;;;;60.70;46.95;;;22.30;83.60;;;;;;5157043;27;20027;-82
2021/06/18 07:28:26;;;;;;;59.17;46.88;;;22.40;83.60;;;;;;5156403;27;20086;-86
2021/06/18 07:31:03;;;;;;;59.60;45.15;;;22.50;83.50;;;;;;5156686;27;20070;-82
2021/06/18 07:33:32;;;;;;;58.38;45.67;;;22.60;83.50;;;;;;5175353;27;20417;-83
2021/06/18 07:35:59;;;;;;;50.00;43.55;;;22.80;83.30;;;;;;5175056;27;20011;-82
2021/06/18 07:38:30;;;;;;;50.33;41.60;;;22.90;83.20;;;;;;5156915;27;20410;-82
2021/06/18 07:40:57;;;;;;;48.35;40.67;;;23.10;83.00;;;;;;5158994;27;20022;-83
2021/06/18 07:43:25;;;;;;;42.88;37.80;;;23.20;82.80;;;;;;5173028;27;20019;-82
2021/06/18 07:45:52;;;;;;;42.17;34.40;;;23.40;82.80;;;;;;5174127;27;20030;-82
2021/06/18 07:48:36;;;;;;;46.30;34.88;;;23.50;82.60;;;;;;5177686;27;20007;-82
2021/06/18 07:51:03;;;;;;;35.30;30.48;;;23.60;82.20;;;;;;5172299;27;20027;-81
2021/06/18 07:53:30;;;;;;;32.50;25.62;;;23.80;82.00;;;;;;5173833;27;20035;-84
2021/06/18 07:55:57;;;;;;;29.17;24.23;;;23.90;81.80;;;;;;5174127;27;20058;-82
2021/06/18 07:58:25;;;;;;;29.05;24.65;;;24.00;81.50;;;;;;5175841;27;20023;-84
2021/06/18 08:00:52;;;;;;;33.80;22.60;;;24.10;81.20;;;;;;5173996;27;20022;-84
2021/06/18 08:03:19;;;;;;;23.25;20.50;;;24.10;80.90;;;;;;5156324;27;20050;-82
2021/06/18 08:05:46;;;;;;;29.40;22.48;;;24.20;80.50;;;;;;5174351;27;20380;-84
2021/06/18 08:08:13;;;;;;;26.15;20.12;;;24.20;80.30;;;;;;5156334;27;20046;-84
2021/06/18 08:10:50;;;;;;;27.85;21.77;;;24.30;80.00;;;;;;5174403;27;20035;-84
2021/06/18 08:13:20;;;;;;;22.17;18.05;;;24.30;79.80;;;;;;5174892;27;20059;-84
2021/06/18 08:15:47;;;;;;;18.98;15.60;;;24.30;79.60;;;;;;5156394;27;20030;-83
2021/06/18 08:18:17;;;;;;;18.50;11.88;;;24.40;79.40;;;;;;5167761;27;20031;-84
2021/06/18 08:20:51;;;;;;;20.40;11.98;;;24.40;79.40;;;;;;5156172;27;20011;-84
2021/06/18 08:26:20;;;;;;;13.68;9.27;;;24.60;79.10;;;;;;5174650;27;20422;-83
2021/06/18 08:28:48;;;;;;;11.10;8.70;;;24.70;78.30;;;;;;5156709;27;20426;-85
2021/06/18 08:31:15;;;;;;;10.32;8.40;;;24.70;78.10;;;;;;5174753;27;20345;-83
2021/06/18 08:33:43;;;;;;;10.98;7.47;;;24.80;78.00;;;;;;5157917;27;20018;-85
2021/06/18 08:36:10;;;;;;;10.15;7.70;;;24.90;78.10;;;;;;5158407;27;20035;-83
2021/06/18 08:38:39;;;;;;;14.27;6.97;;;24.90;78.00;;;;;;5158559;27;20012;-84
2021/06/18 08:41:07;;;;;;;10.20;6.43;;;25.10;78.10;;;;;;5155984;27;20011;-87
2021/06/18 08:43:35;;;;;;;11.77;6.18;;;25.20;77.70;;;;;;5156099;27;20007;-85
2021/06/18 08:46:03;;;;;;;11.93;6.90;;;25.30;77.20;;;;;;5156616;27;20035;-84
2021/06/18 08:48:32;;;;;;;11.30;6.82;;;25.40;76.70;;;;;;5155944;27;20004;-87
2021/06/18 08:51:04;;;;;;;11.73;6.75;;;25.50;76.20;;;;;;5156391;27;20335;-86
2021/06/18 08:53:36;;;;;;;9.10;5.90;;;25.50;75.70;;;;;;5157161;27;20051;-85
2021/06/18 08:56:06;;;;;;;10.98;5.37;;;25.60;75.30;;;;;;5156849;27;20008;-84
2021/06/18 08:58:34;;;;;;;9.18;5.53;;;25.80;75.20;;;;;;5156829;27;20011;-85
2021/06/18 09:01:02;;;;;;;8.13;5.30;;;25.80;74.60;;;;;;5156197;27;20020;-83
2021/06/18 09:03:34;;;;;;;9.48;4.93;;;25.90;74.40;;;;;;5155960;27;20037;-86
2021/06/18 09:06:23;;;;;;;7.82;5.05;;;25.90;74.20;;;;;;5158148;27;20059;-84
2021/06/18 09:09:22;;;;;;;6.97;4.07;;;26.00;74.10;;;;;;5155823;27;20732;-88
2021/06/18 09:11:57;;;;;;;9.70;4.05;;;26.10;73.70;;;;;;5155450;27;20011;-88
2021/06/18 09:14:27;;;;;;;9.65;4.30;;;26.10;73.60;;;;;;5156444;27;20026;-88
2021/06/18 09:17:17;;;;;;;11.65;4.28;;;26.20;72.90;;;;;;5156999;27;20030;-86
2021/06/18 09:19:49;;;;;;;8.52;4.30;;;26.30;72.60;;;;;;5155051;27;20020;-88
2021/06/18 09:22:20;;;;;;;8.60;4.57;;;26.30;72.60;;;;;;5156324;27;20026;-83
2021/06/18 09:24:57;;;;;;;7.15;4.22;;;26.30;72.90;;;;;;5155827;27;20019;-87
2021/06/18 09:27:34;;;;;;;10.98;4.30;;;26.30;72.70;;;;;;5174231;27;20023;-86
2021/06/18 09:30:30;;;;;;;7.32;3.90;;;26.40;72.40;;;;;;5157018;27;20043;-85
2021/06/18 09:33:19;;;;;;;8.48;3.65;;;26.50;72.10;;;;;;5155804;27;20034;-85
2021/06/18 09:36:10;;;;;;;7.72;3.90;;;26.60;72.00;;;;;;5156439;27;20074;-85
2021/06/18 09:38:42;;;;;;;7.85;3.80;;;26.70;71.90;;;;;;5143583;27;20026;-84
2021/06/18 09:41:41;;;;;;;9.27;3.83;;;26.70;71.10;;;;;;5155798;27;20067;-87
2021/06/18 09:44:20;;;;;;;11.40;3.80;;;26.70;71.00;;;;;;5156155;27;20120;-85
2021/06/18 09:47:06;;;;;;;;;;;;;;;;;;;;;
2021/06/18 09:49:52;;;;;;;7.50;3.53;;;26.80;71.30;;;;;;5173814;27;20045;-86
2021/06/18 09:52:25;;;;;;;7.30;3.60;;;26.80;71.30;;;;;;5156161;27;20398;-85
2021/06/18 09:54:56;;;;;;;7.87;3.53;;;26.70;71.20;;;;;;5155471;27;20020;-86
2021/06/18 09:57:41;;;;;;;9.82;3.67;;;26.80;71.30;;;;;;5155779;27;20007;-86
2021/06/18 10:00:16;;;;;;;6.68;3.55;;;26.80;71.40;;;;;;5157377;27;20019;-86
2021/06/18 10:02:49;;;;;;;12.10;3.87;;;26.80;71.30;;;;;;5155899;27;20411;-87
2021/06/18 10:05:22;;;;;;;6.40;3.65;;;26.80;71.00;;;;;;5153174;27;20032;-84
2021/06/18 10:07:52;;;;;;;5.85;3.80;;;26.80;71.20;;;;;;5153662;27;20020;-86
2021/06/18 10:10:28;;;;;;;8.88;3.65;;;26.90;71.30;;;;;;5153693;27;20032;-87
2021/06/18 10:12:59;;;;;;;6.68;3.92;;;26.80;71.10;;;;;;5153835;27;20340;-86
2021/06/18 10:15:29;;;;;;;6.93;4.12;;;26.80;71.10;;;;;;5153986;27;20055;-86
2021/06/18 10:17:57;;;;;;;9.13;3.78;;;26.80;71.20;;;;;;5153442;27;20011;-83
2021/06/18 10:20:30;;;;;;;8.32;3.67;;;26.80;71.00;;;;;;5153211;27;20018;-86
2021/06/18 10:23:01;;;;;;;10.18;3.90;;;26.90;70.90;;;;;;5153374;27;20023;-86
2021/06/18 10:25:33;;;;;;;7.87;3.80;;;26.90;71.00;;;;;;5153478;27;20031;-87
2021/06/18 10:28:07;;;;;;;9.27;4.62;;;26.90;70.80;;;;;;5153316;27;20405;-86
2021/06/18 10:30:47;;;;;;;8.88;3.45;;;26.90;70.60;;;;;;5153494;27;20064;-85
2021/06/18 10:33:27;;;;;;;7.53;3.25;;;26.90;70.00;;;;;;5153817;27;20020;-86
2021/06/18 10:36:06;;;;;;;7.03;3.40;;;27.00;70.10;;;;;;5153469;27;20356;-87
2021/06/18 10:38:42;;;;;;;9.85;3.30;;;27.10;69.30;;;;;;5156146;27;20014;-85
2021/06/18 10:41:18;;;;;;;7.00;3.25;;;27.20;68.30;;;;;;5153523;27;20024;-87
2021/06/18 10:43:50;;;;;;;6.47;3.00;;;27.30;67.80;;;;;;5153422;27;20010;-88
2021/06/18 10:46:48;;;;;;;30.42;3.50;;;27.40;67.30;;;;;;5154274;27;20008;-87
2021/06/18 10:49:19;;;;;;;8.23;3.28;;;27.50;66.40;;;;;;5153996;27;20067;-87
2021/06/18 10:51:56;;;;;;;7.05;3.00;;;27.60;66.20;;;;;;5152471;27;20028;-87
2021/06/18 10:54:53;;;;;;;7.95;3.33;;;27.70;66.30;;;;;;5153524;27;20389;-88
2021/06/18 10:58:05;;;;;;;;;;;;;;;;;;;;;
2021/06/18 11:00:36;;;;;;;9.65;4.18;;;28.00;66.90;;;;;;5154520;27;20446;-85
2021/06/18 11:03:17;;;;;;;;;;;;;;;;;;;;;
2021/06/18 11:05:59;;;;;;;6.25;3.37;;;28.30;66.20;;;;;;5158721;27;20325;-85
2021/06/18 11:08:31;;;;;;;10.93;3.40;;;28.40;65.80;;;;;;5157880;27;20328;-84
2021/06/18 11:11:25;;;;;;;11.40;3.20;;;28.50;65.10;;;;;;5157031;27;20435;-86
2021/06/18 11:14:10;;;;;;;6.30;2.90;;;28.60;64.70;;;;;;5157899;27;20067;-86
2021/06/18 11:16:47;;;;;;;10.82;3.60;;;28.70;63.50;;;;;;5156476;27;20155;-86
2021/06/18 11:19:29;;;;;;;8.02;3.65;;;28.70;64.00;;;;;;5156689;27;20026;-85
2021/06/18 11:22:45;;;;;;;5.97;3.00;;;28.80;64.80;;;;;;5175568;27;20331;-86
2021/06/18 11:25:41;;;;;;;10.65;3.03;;;28.90;64.90;;;;;;5070545;28;20409;-86
2021/06/18 11:28:35;;;;;;;12.10;3.40;;;29.00;64.00;;;;;;4991068;28;20188;-85
2021/06/18 11:31:37;;;;;;;8.52;3.25;;;29.10;64.10;;;;;;4990996;28;20094;-87
2021/06/18 11:34:22;;;;;;;7.87;3.28;;;29.10;62.40;;;;;;4974974;28;20054;-84
2021/06/18 11:37:06;;;;;;;11.10;3.42;;;29.20;61.90;;;;;;4975397;28;20462;-86
2021/06/18 11:39:34;;;;;;;14.80;3.20;;;29.20;62.20;;;;;;4990766;28;20014;-86
2021/06/18 11:42:05;;;;;;;13.18;3.62;;;29.30;62.40;;;;;;4974962;28;20078;-87
2021/06/18 11:44:33;;;;;;;7.05;3.40;;;29.30;62.00;;;;;;4975019;28;20014;-87
2021/06/18 11:47:07;;;;;;;10.52;3.53;;;29.30;61.80;;;;;;5040554;28;20047;-85
2021/06/18 11:49:41;;;;;;;8.18;3.62;;;29.20;62.40;;;;;;5053300;28;20028;-85
2021/06/18 11:52:14;;;;;;;9.48;3.97;;;29.10;63.00;;;;;;5052676;28;20029;-85
2021/06/18 11:54:53;;;;;;;8.45;3.55;;;29.10;63.00;;;;;;5052870;28;20025;-87
2021/06/18 11:57:29;;;;;;;12.13;3.85;;;29.10;64.10;;;;;;5070320;28;20013;-86
2021/06/18 12:00:06;;;;;;;7.35;3.67;;;29.10;63.70;;;;;;5070152;28;20041;-89
2021/06/18 12:02:40;;;;;;;12.68;3.95;;;29.20;63.30;;;;;;5149643;27;20411;-84
2021/06/18 12:05:15;;;;;;;11.55;3.85;;;29.30;62.50;;;;;;5174991;27;20035;-86
2021/06/18 12:07:46;;;;;;;12.32;4.05;;;29.30;62.10;;;;;;5174086;27;20074;-86
2021/06/18 12:10:38;;;;;;;11.27;3.58;;;29.30;61.50;;;;;;5173223;27;20020;-89
2021/06/18 12:13:05;;;;;;;11.18;3.78;;;29.20;61.30;;;;;;5173941;27;20409;-84
2021/06/18 12:15:35;;;;;;;8.45;3.45;;;28.90;61.30;;;;;;5174941;27;20360;-84
2021/06/18 12:18:15;;;;;;;8.65;3.72;;;28.80;61.00;;;;;;5173704;27;20016;-86
2021/06/18 12:20:46;;;;;;;9.57;4.22;;;28.60;61.60;;;;;;5155176;27;20091;-85
2021/06/18 12:23:19;;;;;;;8.77;4.07;;;28.50;62.80;;;;;;5174364;27;20011;-85
2021/06/18 12:25:56;;;;;;;7.40;4.00;;;28.50;64.00;;;;;;5175256;27;20066;-85
2021/06/18 12:28:27;;;;;;;11.48;4.03;;;28.50;64.30;;;;;;5174600;27;20108;-85
2021/06/18 12:30:57;;;;;;;9.98;3.83;;;28.60;64.40;;;;;;5172857;27;20020;-87
2021/06/18 12:33:24;;;;;;;10.70;3.90;;;28.70;64.50;;;;;;5173329;27;20022;-87
2021/06/18 12:35:58;;;;;;;11.95;3.87;;;28.80;64.10;;;;;;5173346;27;20017;-86
2021/06/18 12:38:46;;;;;;;;;;;;;;;;;;;;;
2021/06/18 12:41:26;;;;;;;8.43;3.72;;;29.10;63.00;;;;;;5174794;27;20060;-84
2021/06/18 12:44:04;;;;;;;10.48;4.87;;;29.30;62.50;;;;;;5173472;27;20340;-84
2021/06/18 12:46:32;;;;;;;10.98;3.95;;;29.40;62.70;;;;;;5173171;27;20034;-84
2021/06/18 12:49:13;;;;;;;10.85;3.65;;;29.40;62.70;;;;;;5173473;27;20058;-84
2021/06/18 12:51:41;;;;;;;10.02;3.58;;;29.60;62.50;;;;;;5173995;27;20028;-83
2021/06/18 12:54:08;;;;;;;6.28;2.60;;;29.70;62.20;;;;;;5174630;27;20011;-86
2021/06/18 12:56:42;;;;;;;11.82;2.70;;;29.80;60.80;;;;;;5174617;27;20038;-85
2021/06/18 12:59:11;;;;;;;8.43;3.00;;;29.90;60.00;;;;;;5174518;27;20116;-84
2021/06/18 13:01:41;;;;;;;10.27;2.83;;;30.00;59.80;;;;;;5175023;27;20022;-85
2021/06/18 13:04:10;;;;;;;7.75;2.70;;;30.00;59.90;;;;;;5174440;27;20011;-85
2021/06/18 13:06:44;;;;;;;6.07;2.45;;;30.00;59.80;;;;;;5175314;27;20030;-85